Time;durP1;ratioP1;P1;durP2;ratioP2;P2;SDS_P1;SDS_P2;PMS_P1;PMS_P2;Temp;Humidity;BMP_temperature;BMP_pressure;BME280_temperature;BME280_humidity;BME280_pressure;Samples;Min_cycle;Max_cycle;Signal;HPM_P1;HPM_P2
2023/01/11 00:00:48;;;;;;;0.97;0.97;;;;;;;7.46;83.86;100568.94;5117428;28;20608;-72
2023/01/11 00:03:15;;;;;;;1.47;1.47;;;;;;;7.50;83.40;100574.94;5117353;28;20585;-73
2023/01/11 00:05:42;;;;;;;1.27;1.27;;;;;;;7.49;83.38;100571.41;5117519;28;20592;-72
2023/01/11 00:08:10;;;;;;;1.50;1.50;;;;;;;7.52;83.27;100568.56;5117197;28;20291;-72
2023/01/11 00:10:37;;;;;;;1.80;1.20;;;;;;;7.59;82.99;100564.56;5117758;28;20225;-72
2023/01/11 00:13:04;;;;;;;1.23;1.23;;;;;;;7.66;82.69;100568.56;5117172;28;20189;-72
2023/01/11 00:15:30;;;;;;;1.20;1.20;;;;;;;7.70;83.07;100569.22;5117158;28;20185;-72
2023/01/11 00:17:57;;;;;;;1.50;1.40;;;;;;;7.77;82.81;100543.03;5117021;28;20223;-71
2023/01/11 00:20:24;;;;;;;1.80;1.80;;;;;;;7.77;82.71;100548.38;5117059;28;20290;-72
2023/01/11 00:22:50;;;;;;;2.10;1.63;;;;;;;7.78;83.10;100558.06;5116801;28;20279;-72
2023/01/11 00:25:17;;;;;;;1.40;1.40;;;;;;;7.78;82.60;100542.06;5117435;28;20218;-73
2023/01/11 00:27:45;;;;;;;1.20;1.00;;;;;;;7.79;82.78;100544.66;5116858;28;20225;-73
2023/01/11 00:30:12;;;;;;;1.23;1.23;;;;;;;7.84;82.47;100555.88;5116877;28;20529;-73
2023/01/11 00:32:38;;;;;;;1.30;1.27;;;;;;;7.86;82.89;100553.13;5116822;28;20189;-73
2023/01/11 00:35:06;;;;;;;1.00;1.00;;;;;;;7.84;82.32;100547.88;5117006;28;20192;-73
2023/01/11 00:37:32;;;;;;;0.93;0.93;;;;;;;7.88;81.93;100556.56;5116674;28;20295;-72
2023/01/11 00:39:58;;;;;;;0.90;0.90;;;;;;;7.90;82.15;100546.63;5116663;28;20177;-73
2023/01/11 00:47:59;;;;;;;1.20;1.20;;;;;;;7.89;82.52;100539.59;5117067;28;20212;-72
2023/01/11 00:50:28;;;;;;;1.37;0.90;;;;;;;7.97;81.44;100531.09;5116473;28;20687;-72
2023/01/11 00:52:55;;;;;;;1.27;1.27;;;;;;;8.01;81.63;100537.94;5116376;28;20699;-72
2023/01/11 00:55:23;;;;;;;0.93;0.93;;;;;;;8.00;81.77;100538.91;5115915;28;20191;-72
2023/01/11 00:57:49;;;;;;;1.20;1.20;;;;;;;8.10;81.42;100526.69;5116268;28;20608;-72
2023/01/11 01:00:17;;;;;;;0.93;0.93;;;;;;;8.09;81.32;100514.28;5116252;28;20264;-72
2023/01/11 01:02:44;;;;;;;1.10;1.10;;;;;;;8.16;80.94;100515.59;5098682;28;20643;-72
2023/01/11 01:05:11;;;;;;;0.90;0.90;;;;;;;8.15;81.47;100521.06;5116079;28;20258;-72
2023/01/11 01:07:37;;;;;;;0.97;0.90;;;;;;;8.14;81.43;100514.00;5097847;28;20247;-72
2023/01/11 01:10:04;;;;;;;3.13;1.00;;;;;;;8.23;81.21;100518.75;5116935;28;20279;-72
2023/01/11 01:15:17;;;;;;;1.17;1.17;;;;;;;8.26;81.20;100511.41;5116268;28;20184;-72
2023/01/11 01:17:45;;;;;;;0.90;0.90;;;;;;;8.37;80.57;100508.00;5115913;28;20628;-72
2023/01/11 01:20:12;;;;;;;0.87;0.87;;;;;;;8.40;80.79;100510.50;5115867;28;20617;-72
2023/01/11 01:22:38;;;;;;;1.07;1.07;;;;;;;8.43;80.71;100499.66;5115913;28;20225;-72
2023/01/11 01:25:05;;;;;;;1.00;1.00;;;;;;;8.49;80.89;100504.56;5115737;28;20258;-73
2023/01/11 01:27:31;;;;;;;1.10;1.10;;;;;;;8.52;81.04;100499.03;5115676;28;20201;-72
2023/01/11 01:29:58;;;;;;;0.83;0.83;;;;;;;8.57;80.94;100497.84;5115704;28;20273;-73
2023/01/11 01:32:24;;;;;;;0.90;0.90;;;;;;;8.62;80.23;100507.28;5115652;28;20220;-73
2023/01/11 01:34:50;;;;;;;0.90;0.90;;;;;;;8.62;80.70;100496.59;5115630;28;20715;-73
2023/01/11 01:37:17;;;;;;;1.07;1.07;;;;;;;8.75;80.04;100501.97;5116031;28;20205;-72
2023/01/11 01:39:43;;;;;;;1.00;1.00;;;;;;;8.72;80.06;100497.69;5115504;28;20683;-72
2023/01/11 01:42:15;;;;;;;1.10;1.10;;;;;;;8.81;79.72;100506.91;5116021;28;20260;-72
2023/01/11 01:44:59;;;;;;;1.00;1.00;;;;;;;8.84;79.72;100505.81;5115370;28;20205;-72
2023/01/11 01:47:36;;;;;;;1.07;1.07;;;;;;;8.82;79.70;100489.06;5115307;28;20205;-72
2023/01/11 01:50:14;;;;;;;0.90;0.90;;;;;;;8.86;79.99;100491.41;5115628;28;20269;-73
2023/01/11 01:52:45;;;;;;;0.93;0.90;;;;;;;8.92;79.91;100496.31;5115541;28;20208;-73
2023/01/11 01:55:17;;;;;;;1.07;1.07;;;;;;;8.93;80.14;100482.00;5115511;28;20178;-73
2023/01/11 01:57:44;;;;;;;1.17;1.17;;;;;;;8.96;80.53;100490.78;5115432;28;20213;-72
2023/01/11 02:00:12;;;;;;;0.90;0.90;;;;;;;8.97;80.52;100469.28;5115098;28;20686;-72
2023/01/11 02:02:42;;;;;;;0.97;0.97;;;;;;;8.99;80.45;100490.56;5115610;28;20699;-72
2023/01/11 02:05:10;;;;;;;1.07;1.00;;;;;;;9.03;80.33;100487.56;5114986;28;20225;-72
2023/01/11 02:07:39;;;;;;;1.10;1.10;;;;;;;9.03;80.53;100476.03;5114276;28;20291;-72
2023/01/11 02:10:14;;;;;;;0.90;0.90;;;;;;;8.97;80.87;100469.28;5114937;28;20185;-72
2023/01/11 02:12:50;;;;;;;0.93;0.93;;;;;;;9.01;81.40;100477.97;5115191;28;20698;-72
2023/01/11 02:15:20;;;;;;;0.87;0.87;;;;;;;8.97;82.07;100484.47;5114863;28;20197;-71
2023/01/11 02:17:47;;;;;;;0.73;0.73;;;;;;;8.93;82.41;100478.47;5115011;28;20209;-70
2023/01/11 02:20:29;;;;;;;1.20;1.20;;;;;;;8.96;82.60;100478.28;5114665;28;20185;-70
2023/01/11 02:23:04;;;;;;;1.20;1.20;;;;;;;8.89;83.23;100487.66;5096696;28;20227;-70
2023/01/11 02:25:50;;;;;;;0.70;0.70;;;;;;;8.84;83.85;100479.13;5114883;28;20280;-70
2023/01/11 02:28:29;;;;;;;1.93;1.00;;;;;;;8.81;84.17;100463.28;5114548;28;20197;-70
2023/01/11 02:31:22;;;;;;;1.00;1.00;;;;;;;8.71;85.26;100469.28;5114879;28;20527;-70
2023/01/11 02:34:27;;;;;;;1.10;1.10;;;;;;;8.67;85.94;100462.44;5114524;28;20181;-70
2023/01/11 02:37:21;;;;;;;1.10;1.10;;;;;;;8.56;86.71;100456.97;5114332;28;20690;-70
2023/01/11 02:39:55;;;;;;;0.80;0.80;;;;;;;8.54;87.19;100450.88;5114373;28;20169;-70
2023/01/11 02:45:22;;;;;;;0.93;0.93;;;;;;;8.44;87.62;100455.13;5114785;28;20280;-72
2023/01/11 02:48:03;;;;;;;1.00;1.00;;;;;;;8.41;88.05;100464.19;5096390;28;20232;-71
2023/01/11 02:50:49;;;;;;;1.27;1.27;;;;;;;8.40;88.40;100448.28;5114771;28;20663;-72
2023/01/11 02:53:29;;;;;;;1.00;0.90;;;;;;;8.40;88.69;100448.28;5114706;28;20256;-72
2023/01/11 02:55:58;;;;;;;0.93;0.93;;;;;;;8.38;88.53;100455.50;5114698;28;20186;-72
2023/01/11 02:58:29;;;;;;;0.80;0.80;;;;;;;8.42;88.55;100451.72;5095926;28;20596;-72
2023/01/11 03:00:57;;;;;;;0.90;0.90;;;;;;;8.42;88.28;100441.88;5114353;28;20609;-72
2023/01/11 03:03:26;;;;;;;0.90;0.90;;;;;;;8.42;88.30;100436.53;5114542;28;20726;-72
2023/01/11 03:05:58;;;;;;;1.00;1.00;;;;;;;8.43;89.17;100432.09;5114145;28;20307;-72
2023/01/11 03:08:45;;;;;;;0.90;0.90;;;;;;;8.44;88.96;100447.97;5113942;28;20204;-72
2023/01/11 03:14:25;;;;;;;1.10;1.10;;;;;;;8.40;89.21;100427.78;5114455;28;20177;-72
2023/01/11 03:17:08;;;;;;;1.10;0.80;;;;;;;8.38;89.45;100421.69;5114159;28;20287;-71
2023/01/11 03:19:41;;;;;;;1.03;1.03;;;;;;;8.41;89.95;100423.31;5113916;28;20192;-72
2023/01/11 03:22:27;;;;;;;0.97;0.97;;;;;;;8.42;90.60;100419.69;5113836;28;20614;-72
2023/01/11 03:25:22;;;;;;;0.80;0.80;;;;;;;8.47;90.68;100430.91;5114251;28;20263;-72
2023/01/11 03:27:55;;;;;;;0.83;0.83;;;;;;;8.46;90.77;100431.88;5113912;28;20750;-72
2023/01/11 03:30:43;;;;;;;1.00;1.00;;;;;;;8.46;90.92;100431.88;5113986;28;20256;-72
2023/01/11 03:33:29;;;;;;;1.30;1.30;;;;;;;8.50;90.94;100433.38;5114233;28;20260;-72
2023/01/11 03:36:26;;;;;;;1.23;1.23;;;;;;;8.50;91.13;100423.56;5113890;28;20257;-72
2023/01/11 03:38:59;;;;;;;2.37;1.53;;;;;;;8.48;91.28;100422.78;5113904;28;20200;-72
2023/01/11 03:41:31;;;;;;;1.23;1.20;;;;;;;8.50;91.27;100422.72;5113533;28;20257;-73
2023/01/11 03:44:00;;;;;;;1.90;1.90;;;;;;;8.50;91.82;100428.88;5113854;28;20260;-73
2023/01/11 03:46:30;;;;;;;2.13;2.13;;;;;;;8.50;91.79;100417.38;5113394;28;20604;-72
2023/01/11 03:49:26;;;;;;;1.43;1.43;;;;;;;8.54;91.44;100426.84;5113426;28;20246;-73
2023/01/11 03:51:53;;;;;;;1.43;1.43;;;;;;;8.62;92.19;100415.66;5106693;28;20209;-73
2023/01/11 03:54:23;;;;;;;3.43;2.80;;;;;;;8.63;91.74;100420.88;5113437;28;20191;-73
2023/01/11 03:57:03;;;;;;;1.93;1.93;;;;;;;8.61;91.90;100417.47;5113395;28;20221;-73
2023/01/11 03:59:30;;;;;;;1.63;1.63;;;;;;;8.65;91.85;100408.28;5113758;28;20253;-73
2023/01/11 04:01:57;;;;;;;2.83;2.83;;;;;;;8.70;91.54;100416.00;5113898;28;20268;-73
2023/01/11 04:04:24;;;;;;;2.73;1.93;;;;;;;8.68;91.82;100399.22;5113354;28;20272;-73
2023/01/11 04:06:50;;;;;;;3.47;3.30;;;;;;;8.72;91.91;100422.94;5113429;28;20288;-73
2023/01/11 04:09:17;;;;;;;2.70;2.60;;;;;;;8.77;91.80;100403.06;5113336;28;20708;-73
2023/01/11 04:11:44;;;;;;;2.50;2.40;;;;;;;8.78;91.54;100408.28;5113267;28;20272;-73
2023/01/11 04:14:10;;;;;;;1.97;1.97;;;;;;;8.80;91.62;100405.53;5113776;28;20189;-73
2023/01/11 04:16:37;;;;;;;1.87;1.87;;;;;;;8.85;91.43;100398.88;5113639;28;20208;-73
2023/01/11 04:19:03;;;;;;;1.67;1.67;;;;;;;8.85;91.63;100395.38;5113175;28;20268;-73
2023/01/11 04:21:30;;;;;;;4.97;4.77;;;;;;;8.89;91.45;100405.72;5113189;28;20264;-73
2023/01/11 04:23:56;;;;;;;2.17;2.17;;;;;;;8.91;91.47;100403.81;5113140;28;20275;-74
2023/01/11 04:26:23;;;;;;;3.20;3.20;;;;;;;8.97;91.33;100391.84;5113045;28;20197;-73
2023/01/11 04:28:49;;;;;;;4.37;4.07;;;;;;;8.98;91.36;100398.03;5113090;28;20185;-73
2023/01/11 04:31:19;;;;;;;3.00;2.97;;;;;;;8.95;91.30;100391.09;5115775;28;20268;-73
2023/01/11 04:33:45;;;;;;;2.60;2.60;;;;;;;8.96;91.65;100389.28;5116811;28;20189;-73
2023/01/11 04:36:12;;;;;;;1.80;1.80;;;;;;;8.94;91.51;100384.91;5116738;28;20663;-73
2023/01/11 04:38:38;;;;;;;1.70;1.70;;;;;;;8.96;91.63;100392.81;5116675;28;20322;-73
2023/01/11 04:43:53;;;;;;;1.00;1.00;;;;;;;8.94;91.91;100384.91;5116659;28;20182;-73
2023/01/11 04:46:19;;;;;;;1.20;1.20;;;;;;;8.97;92.13;100391.00;5116363;28;20366;-72
2023/01/11 04:48:45;;;;;;;2.37;1.27;;;;;;;8.98;92.00;100387.34;5116535;28;20188;-73
2023/01/11 04:51:12;;;;;;;1.60;1.60;;;;;;;8.99;91.95;100381.91;5117023;28;20193;-73
2023/01/11 04:53:38;;;;;;;2.00;2.00;;;;;;;9.01;92.05;100387.16;5116656;28;20677;-73
2023/01/11 04:56:05;;;;;;;1.10;1.10;;;;;;;9.04;91.83;100384.25;5117229;28;20216;-73
2023/01/11 04:58:34;;;;;;;1.20;1.20;;;;;;;9.06;92.14;100385.84;5097989;28;20308;-73
2023/01/11 05:01:10;;;;;;;1.20;1.20;;;;;;;9.14;91.58;100385.28;5116329;28;20293;-73
2023/01/11 05:03:37;;;;;;;1.10;1.10;;;;;;;9.12;91.68;100381.88;5116513;28;20181;-73
2023/01/11 05:06:04;;;;;;;1.30;1.30;;;;;;;9.15;91.91;100374.50;5116103;28;20291;-73
2023/01/11 05:08:31;;;;;;;1.20;1.20;;;;;;;9.17;92.10;100379.75;5116068;28;20296;-73
2023/01/11 05:11:00;;;;;;;1.00;1.00;;;;;;;9.19;92.03;100388.47;5116052;28;20726;-73
2023/01/11 05:13:42;;;;;;;1.00;1.00;;;;;;;9.15;92.19;100363.81;5116010;28;20185;-73
2023/01/11 05:16:13;;;;;;;2.03;0.97;;;;;;;9.23;92.66;100378.44;5097913;28;20182;-73
2023/01/11 05:18:44;;;;;;;1.13;1.13;;;;;;;9.22;92.38;100380.28;5116167;28;20213;-73
2023/01/11 05:21:13;;;;;;;1.10;1.10;;;;;;;9.30;91.94;100379.72;5097828;28;20264;-73
2023/01/11 05:23:40;;;;;;;1.10;1.10;;;;;;;9.32;91.87;100381.31;5115693;28;20275;-73
2023/01/11 05:26:13;;;;;;;1.03;1.03;;;;;;;9.30;92.18;100383.22;5115688;28;20296;-73
2023/01/11 05:28:39;;;;;;;1.03;1.03;;;;;;;9.37;91.89;100391.66;5115668;28;20232;-73
2023/01/11 05:31:06;;;;;;;1.10;1.10;;;;;;;9.37;92.00;100389.00;5115957;28;20256;-73
2023/01/11 05:33:32;;;;;;;3.10;1.13;;;;;;;9.36;92.23;100385.47;5115639;28;20177;-74
2023/01/11 05:36:00;;;;;;;1.20;1.20;;;;;;;9.41;92.05;100384.25;5115618;28;20219;-74
2023/01/11 05:38:27;;;;;;;1.20;1.20;;;;;;;9.44;92.04;100382.25;5115482;28;20287;-73
2023/01/11 05:40:59;;;;;;;1.13;1.13;;;;;;;9.48;92.04;100386.41;5115484;28;20597;-73
2023/01/11 05:43:28;;;;;;;1.00;1.00;;;;;;;9.48;91.85;100377.50;5115521;28;20545;-73
2023/01/11 05:45:56;;;;;;;1.10;1.10;;;;;;;9.48;91.83;100381.06;5115878;28;20521;-73
2023/01/11 05:48:24;;;;;;;1.33;1.33;;;;;;;9.45;91.97;100375.91;5115278;28;20610;-74
2023/01/11 05:50:51;;;;;;;1.30;1.30;;;;;;;9.43;92.36;100383.19;5115312;28;20620;-74
2023/01/11 05:53:19;;;;;;;1.20;1.20;;;;;;;9.46;92.13;100376.78;5115336;28;20295;-76
2023/01/11 05:55:56;;;;;;;1.43;1.33;;;;;;;9.46;92.48;100372.28;5097398;28;20588;-75
2023/01/11 05:58:25;;;;;;;1.43;1.33;;;;;;;9.51;92.34;100377.31;5115203;28;20228;-73
2023/01/11 06:00:54;;;;;;;1.27;1.27;;;;;;;9.54;92.25;100377.06;5115115;28;20220;-73
2023/01/11 06:03:23;;;;;;;2.60;1.17;;;;;;;9.57;92.19;100376.84;5115063;28;20217;-73
2023/01/11 06:05:50;;;;;;;1.10;1.10;;;;;;;9.59;92.57;100373.09;5114961;28;20256;-74
2023/01/11 06:08:17;;;;;;;3.60;1.10;;;;;;;9.63;92.57;100380.91;5115187;28;20276;-74
2023/01/11 06:10:54;;;;;;;1.50;1.50;;;;;;;9.63;92.22;100376.41;5114903;28;20186;-74
2023/01/11 06:13:25;;;;;;;1.47;1.47;;;;;;;9.65;92.51;100376.28;5115214;28;20181;-74
2023/01/11 06:16:14;;;;;;;1.30;1.30;;;;;;;9.68;92.41;100368.88;5115230;28;20170;-74
2023/01/11 06:18:43;;;;;;;4.20;1.30;;;;;;;9.72;92.31;100378.41;5096967;28;20259;-74
2023/01/11 06:21:11;;;;;;;2.13;1.10;;;;;;;9.67;92.23;100359.16;5096571;28;20189;-74
2023/01/11 06:23:40;;;;;;;1.20;1.20;;;;;;;9.68;92.51;100373.41;5114489;28;20191;-74
2023/01/11 06:26:09;;;;;;;1.40;1.40;;;;;;;9.75;92.36;100380.84;5114536;28;22144;-74
2023/01/11 06:28:36;;;;;;;1.50;1.50;;;;;;;9.79;92.21;100365.41;5114510;28;20291;-73
2023/01/11 06:31:04;;;;;;;1.10;1.10;;;;;;;9.82;92.85;100369.66;5114488;28;20606;-73
2023/01/11 06:33:31;;;;;;;1.40;1.40;;;;;;;9.80;92.23;100364.47;5114707;28;20192;-74
2023/01/11 06:36:01;;;;;;;1.43;1.43;;;;;;;9.85;92.27;100361.44;5114397;28;20276;-74
2023/01/11 06:38:27;;;;;;;1.27;1.27;;;;;;;9.90;92.51;100370.81;5114254;28;20556;-73
2023/01/11 06:40:59;;;;;;;1.20;1.20;;;;;;;9.87;92.22;100372.88;5114276;28;20663;-73
2023/01/11 06:43:28;;;;;;;3.23;1.07;;;;;;;9.93;92.33;100381.28;5114854;28;20192;-74
2023/01/11 06:45:55;;;;;;;1.50;1.50;;;;;;;9.93;92.82;100381.28;5114129;28;20192;-74
2023/01/11 06:48:22;;;;;;;1.33;1.33;;;;;;;9.99;92.66;100396.03;5079537;28;20227;-73
2023/01/11 06:50:50;;;;;;;2.10;2.10;;;;;;;9.99;92.22;100386.19;5113970;28;20272;-73
2023/01/11 06:53:17;;;;;;;2.50;2.13;;;;;;;10.00;92.13;100382.53;5113663;28;20269;-74
2023/01/11 06:55:44;;;;;;;2.30;2.30;;;;;;;10.00;92.41;100390.56;5114561;28;20271;-74
2023/01/11 06:58:10;;;;;;;2.23;2.23;;;;;;;10.01;92.38;100389.59;5095980;28;20284;-74
2023/01/11 07:00:37;;;;;;;1.70;1.70;;;;;;;10.07;92.49;100401.66;5113968;28;20181;-74
2023/01/11 07:03:05;;;;;;;2.23;2.23;;;;;;;10.12;92.26;100406.66;5095700;28;20229;-74
2023/01/11 07:05:35;;;;;;;2.83;2.73;;;;;;;10.16;92.55;100405.47;5113896;28;20193;-74
2023/01/11 07:08:02;;;;;;;2.53;2.53;;;;;;;10.15;92.31;100414.44;5114032;28;20213;-74
2023/01/11 07:10:28;;;;;;;3.00;3.00;;;;;;;10.17;92.58;100402.66;5096353;28;20208;-74
2023/01/11 07:12:55;;;;;;;3.40;3.30;;;;;;;10.12;92.21;100420.88;5113847;28;20308;-74
2023/01/11 07:15:21;;;;;;;3.37;3.27;;;;;;;10.05;92.24;100433.00;5114321;28;20212;-74
2023/01/11 07:17:55;;;;;;;4.50;4.10;;;;;;;10.05;92.64;100429.50;5113974;28;20266;-73
2023/01/11 07:20:23;;;;;;;4.83;4.73;;;;;;;10.12;92.55;100441.44;5078793;28;20614;-73
2023/01/11 07:22:50;;;;;;;5.60;5.30;;;;;;;10.12;92.04;100442.28;5095547;28;20197;-73
2023/01/11 07:25:17;;;;;;;5.80;5.50;;;;;;;10.14;92.56;100448.38;5113923;28;20211;-74
2023/01/11 07:27:43;;;;;;;5.37;5.27;;;;;;;10.13;92.20;100453.88;5114061;28;20620;-73
2023/01/11 07:30:10;;;;;;;5.67;5.37;;;;;;;10.17;91.91;100448.16;5113658;28;20260;-73
2023/01/11 07:32:37;;;;;;;5.77;5.67;;;;;;;10.20;92.32;100447.09;5113572;28;20189;-73
2023/01/11 07:35:04;;;;;;;6.63;6.20;;;;;;;10.20;91.98;100455.13;5095535;28;20220;-73
2023/01/11 07:37:34;;;;;;;7.03;6.43;;;;;;;10.22;91.89;100458.50;5113427;28;20287;-73
2023/01/11 07:40:00;;;;;;;7.20;6.70;;;;;;;10.28;91.78;100462.56;5113440;28;20306;-73
2023/01/11 07:45:11;;;;;;;6.93;6.73;;;;;;;10.23;92.48;100463.75;5113555;28;20177;-73
2023/01/11 07:47:38;;;;;;;8.67;7.97;;;;;;;10.27;92.76;100460.84;5112011;28;20221;-73
2023/01/11 07:50:05;;;;;;;6.20;5.93;;;;;;;10.30;92.59;100461.53;5114044;28;20252;-73
2023/01/11 07:52:31;;;;;;;9.00;7.60;;;;;;;10.33;92.05;100452.41;5114006;28;20213;-73
2023/01/11 07:55:01;;;;;;;6.60;6.07;;;;;;;10.41;92.41;100448.19;5112167;28;20189;-73
2023/01/11 07:57:28;;;;;;;6.33;5.90;;;;;;;10.40;92.05;100459.00;5113310;28;20270;-73
2023/01/11 07:59:55;;;;;;;5.90;5.63;;;;;;;10.39;91.35;100462.63;5113924;28;20602;-73
2023/01/11 08:02:21;;;;;;;5.37;5.07;;;;;;;10.36;92.02;100455.69;5113365;28;20252;-73
2023/01/11 08:04:48;;;;;;;5.17;4.50;;;;;;;10.36;91.92;100449.50;5112393;28;20287;-73
2023/01/11 08:07:14;;;;;;;5.27;4.97;;;;;;;10.38;91.98;100450.22;5117148;28;20227;-73
2023/01/11 08:09:40;;;;;;;5.67;5.17;;;;;;;10.40;91.67;100459.00;5117583;28;20169;-73
2023/01/11 08:15:13;;;;;;;6.57;5.17;;;;;;;10.46;91.59;100474.59;5034460;28;20658;-73
2023/01/11 08:17:39;;;;;;;5.37;5.07;;;;;;;10.41;91.63;100476.75;5034386;28;20276;-73
2023/01/11 08:20:05;;;;;;;5.83;5.47;;;;;;;10.44;91.28;100473.88;5074167;28;20201;-73
2023/01/11 08:22:32;;;;;;;5.80;5.00;;;;;;;10.38;91.37;100477.84;5116871;28;20288;-73
2023/01/11 08:24:59;;;;;;;5.23;5.03;;;;;;;10.41;91.69;100487.47;5116983;28;20185;-73
2023/01/11 08:27:25;;;;;;;5.90;5.57;;;;;;;10.40;91.97;100491.13;5117021;28;20687;-73
2023/01/11 08:29:51;;;;;;;6.53;6.33;;;;;;;10.46;91.02;100484.44;5117172;28;20635;-73
2023/01/11 08:32:18;;;;;;;7.00;6.40;;;;;;;10.48;91.31;100475.34;5117147;28;20209;-73
2023/01/11 08:34:44;;;;;;;6.53;6.30;;;;;;;10.50;90.40;100486.78;5116726;28;20272;-73
2023/01/11 08:37:11;;;;;;;6.17;5.90;;;;;;;10.51;89.82;100503.69;5117228;28;20201;-73
2023/01/11 08:39:39;;;;;;;6.10;5.80;;;;;;;10.47;90.30;100505.75;5120241;28;20217;-73
2023/01/11 08:42:05;;;;;;;5.80;5.47;;;;;;;10.43;90.30;100505.13;5121811;28;20208;-73
2023/01/11 08:44:31;;;;;;;5.90;5.27;;;;;;;10.39;89.95;100525.09;5120928;28;20264;-73
2023/01/11 08:47:01;;;;;;;6.73;6.07;;;;;;;10.44;90.22;100532.78;5123381;28;20292;-73
2023/01/11 08:49:29;;;;;;;12.20;5.83;;;;;;;10.40;89.71;100552.69;5100672;28;20580;-73
2023/01/11 08:51:55;;;;;;;5.07;4.67;;;;;;;10.30;88.58;100557.88;5118621;28;20182;-73
2023/01/11 08:54:22;;;;;;;9.37;4.40;;;;;;;10.22;88.08;100549.50;5116819;28;20590;-73
2023/01/11 08:56:48;;;;;;;3.70;3.43;;;;;;;10.15;86.85;100569.66;5116398;28;20292;-73
2023/01/11 08:59:15;;;;;;;8.80;3.10;;;;;;;10.10;85.70;100569.13;5116506;28;20609;-73
2023/01/11 09:01:41;;;;;;;9.20;3.77;;;;;;;10.04;85.69;100575.81;5116330;28;20238;-73
2023/01/11 09:04:08;;;;;;;4.20;2.93;;;;;;;9.95;85.68;100569.28;5116858;28;20638;-73
2023/01/11 09:06:50;;;;;;;7.97;2.80;;;;;;;9.91;85.50;100567.81;5116162;28;20215;-72
2023/01/11 09:09:16;;;;;;;3.70;2.90;;;;;;;9.92;85.56;100555.28;5116337;28;20571;-73
2023/01/11 09:11:56;;;;;;;5.47;3.47;;;;;;;9.88;84.83;100559.13;5116174;28;20223;-73
2023/01/11 09:14:24;;;;;;;15.00;3.67;;;;;;;9.84;85.32;100565.66;5116814;28;20505;-73
2023/01/11 09:16:51;;;;;;;8.03;3.07;;;;;;;9.86;85.25;100579.78;5114250;28;20209;-72
2023/01/11 09:19:18;;;;;;;10.20;3.43;;;;;;;9.79;85.12;100590.94;5116217;28;20223;-72
2023/01/11 09:21:45;;;;;;;12.93;2.53;;;;;;;9.77;85.08;100594.69;5098099;28;20197;-72
2023/01/11 09:24:12;;;;;;;16.73;3.70;;;;;;;9.78;84.74;100601.72;5115711;28;20220;-73
2023/01/11 09:26:40;;;;;;;8.43;3.10;;;;;;;9.78;84.55;100607.94;5115710;28;20240;-72
2023/01/11 09:29:07;;;;;;;11.07;3.27;;;;;;;9.73;84.74;100612.75;5116232;28;20181;-72
2023/01/11 09:31:33;;;;;;;10.40;2.80;;;;;;;9.72;84.69;100611.06;5115712;28;20185;-72
2023/01/11 09:34:00;;;;;;;8.37;2.87;;;;;;;9.66;84.59;100619.50;5115682;28;20208;-73
2023/01/11 09:36:27;;;;;;;8.67;3.43;;;;;;;9.65;84.25;100620.47;5116118;28;20189;-72
2023/01/11 09:38:56;;;;;;;5.97;3.10;;;;;;;9.65;84.71;100624.94;5080882;28;20181;-72
2023/01/11 09:41:45;;;;;;;6.10;2.77;;;;;;;9.64;84.67;100629.44;5097329;28;20189;-72
2023/01/11 09:44:17;;;;;;;10.70;3.17;;;;;;;9.65;83.91;100630.28;5097701;28;20177;-72
2023/01/11 09:46:48;;;;;;;4.90;2.80;;;;;;;9.56;84.32;100638.00;5115615;28;20626;-72
2023/01/11 09:49:24;;;;;;;11.17;3.30;;;;;;;9.59;84.36;100635.09;5115334;28;20265;-72
2023/01/11 09:51:53;;;;;;;10.53;3.37;;;;;;;9.55;83.89;100636.28;5115597;28;20546;-72
2023/01/11 09:54:24;;;;;;;10.00;3.17;;;;;;;9.56;83.96;100648.69;5114732;28;20269;-71
2023/01/11 09:57:17;;;;;;;14.17;3.07;;;;;;;9.57;84.38;100652.22;5114141;28;20620;-72
2023/01/11 09:59:51;;;;;;;9.37;3.43;;;;;;;9.56;84.30;100650.50;5115163;28;20272;-72
2023/01/11 10:02:47;;;;;;;17.97;4.40;;;;;;;9.58;83.33;100654.78;5115174;28;20608;-72
2023/01/11 10:05:30;;;;;;;9.50;4.13;;;;;;;9.56;83.96;100664.72;5115072;28;20280;-72
2023/01/11 10:08:12;;;;;;;8.40;3.47;;;;;;;9.61;84.36;100660.91;5114971;28;20213;-72
2023/01/11 10:11:23;;;;;;;9.13;3.93;;;;;;;9.59;84.67;100667.19;5100401;28;20189;-72
2023/01/11 10:14:49;;;;;;;6.70;4.03;;;;;;;9.63;84.49;100675.03;5114869;28;20205;-72
2023/01/11 10:17:52;;;;;;;18.83;4.93;;;;;;;9.62;84.98;100668.78;5114826;28;20201;-72
2023/01/11 10:20:45;;;;;;;14.83;4.03;;;;;;;9.65;84.81;100667.72;5115281;28;20180;-72
2023/01/11 10:23:30;;;;;;;11.70;4.50;;;;;;;9.59;84.92;100669.84;5115054;28;20250;-72
2023/01/11 10:26:01;;;;;;;7.07;4.63;;;;;;;9.58;85.35;100672.66;5115237;28;20268;-72
2023/01/11 10:28:41;;;;;;;23.90;4.53;;;;;;;9.54;85.46;100668.47;5114070;28;20368;-72
2023/01/11 10:31:48;;;;;;;15.33;4.20;;;;;;;9.58;85.06;100673.50;5096352;28;20192;-72
2023/01/11 10:42:21;;;;;;;9.10;3.40;;;;;;;9.51;84.27;100682.91;5114377;28;20176;-72
2023/01/11 10:45:02;;;;;;;16.00;4.37;;;;;;;9.54;84.22;100682.69;5114282;28;20260;-72
2023/01/11 10:47:41;;;;;;;17.43;3.60;;;;;;;9.56;83.66;100694.13;5114236;28;20300;-72
2023/01/11 10:50:25;;;;;;;8.67;3.33;;;;;;;9.57;83.61;100686.97;5114732;28;20191;-72
2023/01/11 10:53:14;;;;;;;7.00;3.60;;;;;;;9.51;83.39;100684.72;5114434;28;20204;-72
2023/01/11 10:55:49;;;;;;;16.43;3.57;;;;;;;9.48;82.33;100691.16;5114124;28;20264;-72
2023/01/11 10:58:25;;;;;;;6.00;2.90;;;;;;;9.48;82.34;100687.59;5114307;28;20200;-72
2023/01/11 11:01:11;;;;;;;9.27;3.37;;;;;;;9.46;82.87;100690.38;5114027;28;20222;-72
2023/01/11 11:04:20;;;;;;;9.27;3.23;;;;;;;9.41;81.39;100687.19;5114039;28;20183;-72
2023/01/11 11:07:00;;;;;;;10.70;3.90;;;;;;;9.32;81.68;100688.66;5059260;28;20238;-72
2023/01/11 11:09:39;;;;;;;9.73;3.10;;;;;;;9.35;81.98;100698.25;5114142;28;20650;-72
2023/01/11 11:12:33;;;;;;;9.07;3.33;;;;;;;9.30;80.35;100689.72;5114480;28;20703;-72
2023/01/11 11:15:19;;;;;;;13.17;3.87;;;;;;;9.30;80.26;100708.41;5113777;28;20185;-72
2023/01/11 11:17:49;;;;;;;13.37;3.30;;;;;;;9.30;80.02;100711.94;5113834;28;20201;-73
2023/01/11 11:20:27;;;;;;;9.27;3.77;;;;;;;9.33;80.07;100694.84;5096026;28;20698;-73
2023/01/11 11:22:57;;;;;;;20.90;3.70;;;;;;;9.26;80.53;100702.41;5078820;28;20685;-73
2023/01/11 11:25:28;;;;;;;7.13;3.17;;;;;;;9.27;80.82;100711.31;5113139;28;20208;-71
2023/01/11 11:28:22;;;;;;;9.27;3.27;;;;;;;9.27;81.49;100716.66;5113514;28;20244;-72
2023/01/11 11:30:53;;;;;;;12.47;3.90;;;;;;;9.29;80.72;100712.03;5114264;28;20180;-73
2023/01/11 11:33:23;;;;;;;16.57;3.97;;;;;;;9.28;78.97;100711.19;5114214;28;20260;-73
2023/01/11 11:36:11;;;;;;;11.03;3.37;;;;;;;9.30;79.77;100711.94;5113620;28;20680;-73
2023/01/11 11:38:57;;;;;;;8.43;3.93;;;;;;;9.32;79.21;100719.88;5113432;28;20276;-72
2023/01/11 11:41:24;;;;;;;12.60;3.73;;;;;;;9.30;78.76;100724.44;5099823;28;20638;-72
2023/01/11 11:43:50;;;;;;;16.87;3.63;;;;;;;9.30;78.33;100724.44;5117813;28;20215;-72
2023/01/11 11:46:25;;;;;;;4.77;3.67;;;;;;;9.31;77.72;100728.81;5099511;28;20193;-72
2023/01/11 11:49:14;;;;;;;10.97;3.87;;;;;;;9.25;78.10;100731.91;5117926;28;20202;-72
2023/01/11 11:51:42;;;;;;;9.80;4.13;;;;;;;9.27;77.67;100735.34;5100131;28;20635;-73
2023/01/11 11:54:34;;;;;;;8.87;4.03;;;;;;;9.18;77.08;100734.13;5117581;28;20216;-73
2023/01/11 11:57:20;;;;;;;8.47;4.77;;;;;;;9.17;77.08;100719.06;5117462;28;20316;-72
2023/01/11 11:59:48;;;;;;;8.83;4.17;;;;;;;9.26;76.92;100722.94;5117928;28;20264;-73
2023/01/11 12:02:30;;;;;;;13.03;4.43;;;;;;;9.38;77.01;100727.44;5099351;28;20260;-73
2023/01/11 12:04:59;;;;;;;9.47;5.30;;;;;;;9.46;77.58;100716.28;5099112;28;20193;-72
2023/01/11 12:07:36;;;;;;;22.83;4.97;;;;;;;9.65;76.73;100726.53;5117179;28;20209;-72
2023/01/11 12:10:22;;;;;;;13.33;5.50;;;;;;;9.84;76.18;100720.78;5117406;28;20188;-72
2023/01/11 12:13:00;;;;;;;7.87;4.10;;;;;;;10.01;76.77;100720.50;5117789;28;20674;-72
2023/01/11 12:15:28;;;;;;;11.83;4.03;;;;;;;10.16;77.18;100724.78;5117842;28;20260;-72
2023/01/11 12:18:31;;;;;;;10.27;5.13;;;;;;;10.38;77.04;100725.97;5117391;28;20209;-72
2023/01/11 12:21:30;;;;;;;11.13;4.53;;;;;;;10.43;73.31;100715.78;5117554;28;20234;-73
2023/01/11 12:24:05;;;;;;;7.33;4.83;;;;;;;10.51;73.45;100732.19;5102485;28;20212;-73
2023/01/11 12:26:39;;;;;;;5.87;4.20;;;;;;;10.37;71.40;100727.81;5120391;28;20252;-73